createdAt,value
2018-07-17T00:00:38.572Z,6.10
2018-07-17T00:03:07.096Z,6.23
2018-07-17T00:05:35.602Z,6.37
2018-07-17T00:08:04.196Z,5.90
2018-07-17T00:10:32.681Z,6.40
2018-07-17T00:13:01.319Z,6.07
2018-07-17T00:15:30.005Z,6.53
2018-07-17T00:17:58.592Z,6.23
2018-07-17T00:20:27.131Z,7.23
2018-07-17T00:22:55.771Z,7.23
2018-07-17T00:25:24.306Z,6.73
2018-07-17T00:27:52.766Z,6.83
2018-07-17T00:30:21.839Z,6.93
2018-07-17T00:32:50.994Z,6.90
2018-07-17T00:35:19.515Z,6.83
2018-07-17T00:37:48.020Z,7.10
2018-07-17T00:40:16.458Z,7.53
2018-07-17T00:42:45.078Z,6.90
2018-07-17T00:45:13.660Z,6.70
2018-07-17T00:47:42.115Z,7.07
2018-07-17T00:50:10.655Z,7.03
2018-07-17T00:52:39.593Z,6.40
2018-07-17T00:55:08.284Z,6.73
2018-07-17T00:57:36.890Z,7.20
2018-07-17T01:00:06.040Z,7.10
2018-07-17T01:02:39.832Z,7.00
2018-07-17T01:05:13.878Z,6.30
2018-07-17T01:07:47.769Z,7.03
2018-07-17T01:10:21.698Z,7.83
2018-07-17T01:12:49.407Z,7.10
2018-07-17T01:15:23.083Z,6.50
2018-07-17T01:17:51.735Z,6.10
2018-07-17T01:20:20.308Z,6.47
2018-07-17T01:22:48.843Z,8.43
2018-07-17T01:25:17.280Z,8.10
2018-07-17T01:27:45.751Z,6.43
2018-07-17T01:30:14.364Z,6.97
2018-07-17T01:32:42.791Z,6.17
2018-07-17T01:35:11.336Z,7.07
2018-07-17T01:37:39.778Z,7.50
2018-07-17T01:40:08.928Z,7.00
2018-07-17T01:42:38.102Z,8.67
2018-07-17T01:45:06.779Z,6.17
2018-07-17T01:47:35.992Z,6.67
2018-07-17T01:50:04.591Z,6.70
2018-07-17T01:52:33.147Z,7.67
2018-07-17T01:55:01.736Z,6.77
2018-07-17T01:57:30.392Z,6.33
2018-07-17T01:59:59.323Z,7.17
2018-07-17T02:02:27.897Z,7.30
2018-07-17T02:04:56.437Z,7.33
2018-07-17T02:07:24.910Z,8.40
2018-07-17T02:09:53.544Z,6.90
2018-07-17T02:12:21.987Z,7.97
2018-07-17T02:14:50.636Z,7.17
2018-07-17T02:17:19.181Z,7.27
2018-07-17T02:19:47.587Z,7.03
2018-07-17T02:22:16.066Z,7.63
2018-07-17T02:24:44.582Z,7.07
2018-07-17T02:27:13.116Z,7.37
2018-07-17T02:29:41.771Z,7.13
2018-07-17T02:32:10.383Z,7.90
2018-07-17T02:34:38.895Z,6.70
2018-07-17T02:37:08.164Z,7.17
2018-07-17T02:39:36.703Z,7.90
2018-07-17T02:42:05.852Z,8.77
2018-07-17T02:44:34.998Z,8.23
2018-07-17T02:47:04.088Z,7.30
2018-07-17T02:49:33.420Z,6.80
2018-07-17T02:52:02.119Z,7.40
2018-07-17T02:54:30.807Z,7.40
2018-07-17T02:56:59.319Z,7.83
2018-07-17T02:59:28.077Z,7.43
2018-07-17T03:01:57.167Z,8.63
2018-07-17T03:04:25.711Z,7.63
2018-07-17T03:06:54.277Z,6.90
2018-07-17T03:09:22.790Z,7.30
2018-07-17T03:11:51.498Z,7.70
2018-07-17T03:14:20.899Z,7.60
2018-07-17T03:16:49.595Z,7.77
2018-07-17T03:19:18.117Z,7.03
2018-07-17T03:21:46.655Z,7.00
2018-07-17T03:24:15.211Z,7.07
2018-07-17T03:26:44.300Z,7.53
2018-07-17T03:29:12.810Z,9.70
2018-07-17T03:31:41.306Z,7.63
2018-07-17T03:34:09.858Z,8.20
2018-07-17T03:36:38.551Z,7.13
2018-07-17T03:39:07.951Z,7.80
2018-07-17T03:41:36.379Z,7.17
2018-07-17T03:44:04.861Z,7.50
2018-07-17T03:46:33.308Z,9.30
2018-07-17T03:49:01.938Z,8.20
2018-07-17T03:51:30.599Z,8.23
2018-07-17T03:53:59.052Z,7.83
2018-07-17T03:56:28.295Z,7.70
2018-07-17T03:58:56.839Z,7.73
2018-07-17T04:01:25.374Z,8.03
2018-07-17T04:03:53.980Z,8.23
2018-07-17T04:06:22.558Z,7.30
2018-07-17T04:08:51.216Z,7.53
2018-07-17T04:11:20.055Z,6.93
2018-07-17T04:13:48.674Z,7.80
2018-07-17T04:16:17.600Z,7.40
2018-07-17T04:18:46.228Z,7.60
2018-07-17T04:21:14.917Z,7.30
2018-07-17T04:23:43.375Z,7.00
2018-07-17T04:26:11.776Z,6.90
2018-07-17T04:28:40.314Z,7.87
2018-07-17T04:31:08.895Z,7.67
2018-07-17T04:33:37.583Z,7.77
2018-07-17T04:36:06.351Z,7.53
2018-07-17T04:38:34.959Z,8.00
2018-07-17T04:41:03.502Z,8.03
2018-07-17T04:43:33.962Z,8.23
2018-07-17T04:46:02.511Z,7.70
2018-07-17T04:48:31.244Z,7.10
2018-07-17T04:50:59.795Z,8.50
2018-07-17T04:53:28.222Z,8.20
2018-07-17T04:55:56.630Z,7.33
2018-07-17T04:58:25.202Z,7.13
2018-07-17T05:00:53.778Z,9.87
2018-07-17T05:03:22.352Z,7.93
2018-07-17T05:05:50.849Z,8.47
2018-07-17T05:08:21.052Z,9.73
2018-07-17T05:10:49.691Z,8.27
2018-07-17T05:13:18.267Z,8.00
2018-07-17T05:15:46.804Z,7.53
2018-07-17T05:18:15.314Z,8.07
2018-07-17T05:20:43.921Z,10.27
2018-07-17T05:23:13.879Z,10.00
2018-07-17T05:25:42.338Z,10.20
2018-07-17T05:28:10.885Z,9.13
2018-07-17T05:30:41.571Z,12.77
2018-07-17T05:33:10.178Z,9.90
2018-07-17T05:35:38.874Z,9.10
2018-07-17T05:38:07.447Z,9.37
2018-07-17T05:40:36.008Z,8.77
2018-07-17T05:43:04.780Z,9.50
2018-07-17T05:45:33.322Z,8.07
2018-07-17T05:48:01.890Z,7.57
2018-07-17T05:50:30.343Z,7.70
2018-07-17T05:52:59.371Z,7.83
2018-07-17T05:55:28.136Z,7.40
2018-07-17T05:57:56.770Z,7.70
2018-07-17T06:00:25.302Z,6.97
2018-07-17T06:02:53.848Z,6.93
2018-07-17T06:05:22.416Z,6.77
2018-07-17T06:07:51.036Z,6.17
2018-07-17T06:10:19.569Z,9.00
2018-07-17T06:12:48.002Z,6.90
2018-07-17T06:15:16.579Z,6.93
2018-07-17T06:17:45.013Z,7.07
2018-07-17T06:20:13.094Z,7.10
2018-07-17T06:22:41.546Z,6.07
2018-07-17T06:25:10.344Z,11.27
2018-07-17T06:27:38.967Z,7.13
2018-07-17T06:30:08.810Z,6.20
2018-07-17T06:32:39.075Z,6.10
2018-07-17T06:35:08.008Z,7.37
2018-07-17T06:37:39.823Z,7.10
2018-07-17T06:40:08.392Z,6.30
2018-07-17T06:42:36.809Z,6.33
2018-07-17T06:45:05.626Z,6.10
2018-07-17T06:47:34.071Z,6.40
2018-07-17T06:50:02.854Z,5.80
2018-07-17T06:52:31.379Z,6.03
2018-07-17T06:55:00.063Z,5.50
2018-07-17T06:57:28.757Z,5.80
2018-07-17T06:59:57.424Z,6.10
2018-07-17T07:02:26.439Z,5.93
2018-07-17T07:04:55.073Z,5.77
2018-07-17T07:07:23.599Z,5.60
2018-07-17T07:09:52.155Z,5.90
2018-07-17T07:12:20.585Z,5.80
2018-07-17T07:14:49.207Z,5.13
2018-07-17T07:17:17.813Z,5.03
2018-07-17T07:19:46.267Z,5.43
2018-07-17T07:22:14.720Z,5.30
2018-07-17T07:24:43.745Z,5.00
2018-07-17T07:27:12.549Z,5.40
2018-07-17T07:29:41.042Z,4.70
2018-07-17T07:32:09.624Z,5.67
2018-07-17T07:34:38.843Z,5.33
2018-07-17T07:37:07.390Z,5.33
2018-07-17T07:39:35.784Z,5.20
2018-07-17T07:42:04.444Z,7.03
2018-07-17T07:44:32.960Z,4.97
2018-07-17T07:47:01.482Z,4.70
2018-07-17T07:49:30.270Z,4.83
2018-07-17T07:51:58.851Z,4.10
2018-07-17T07:54:27.433Z,3.93
2018-07-17T07:56:56.139Z,4.10
2018-07-17T07:59:24.769Z,4.83
2018-07-17T08:01:53.448Z,4.33
2018-07-17T08:04:22.065Z,4.30
2018-07-17T08:06:50.562Z,4.10
2018-07-17T08:09:18.979Z,4.13
2018-07-17T08:11:47.603Z,4.50
2018-07-17T08:14:16.072Z,4.13
2018-07-17T08:16:44.515Z,3.80
2018-07-17T08:19:12.787Z,3.90
2018-07-17T08:21:41.360Z,3.80
2018-07-17T08:24:10.151Z,3.50
2018-07-17T08:26:38.528Z,4.20
2018-07-17T08:29:07.067Z,4.23
2018-07-17T08:31:35.738Z,3.53
2018-07-17T08:34:05.170Z,3.47
2018-07-17T08:36:33.664Z,3.20
2018-07-17T08:39:02.416Z,4.63
2018-07-17T08:41:30.867Z,3.63
2018-07-17T08:43:59.343Z,4.27
2018-07-17T08:46:27.862Z,4.63
2018-07-17T08:48:56.335Z,3.00
2018-07-17T08:51:24.869Z,3.43
2018-07-17T08:53:53.411Z,5.80
2018-07-17T08:56:22.671Z,3.30
2018-07-17T08:58:51.311Z,3.10
2018-07-17T09:01:19.948Z,2.73
2018-07-17T09:03:48.424Z,3.20
2018-07-17T09:06:17.049Z,3.00
2018-07-17T09:08:45.942Z,3.80
2018-07-17T09:11:14.497Z,2.80
2018-07-17T09:13:42.944Z,2.60
2018-07-17T09:16:11.606Z,2.70
2018-07-17T09:18:40.199Z,3.90
2018-07-17T09:21:09.159Z,2.90
2018-07-17T09:23:38.039Z,2.27
2018-07-17T09:26:06.824Z,3.50
2018-07-17T09:28:35.420Z,3.47
2018-07-17T09:31:04.287Z,2.30
2018-07-17T09:33:32.751Z,2.13
2018-07-17T09:36:01.542Z,4.03
2018-07-17T09:38:30.451Z,2.87
2018-07-17T09:40:59.019Z,2.10
2018-07-17T09:43:27.515Z,1.97
2018-07-17T09:45:56.651Z,2.07
2018-07-17T09:48:26.248Z,2.00
2018-07-17T09:50:55.167Z,2.40
2018-07-17T09:53:24.921Z,3.53
2018-07-17T09:55:53.829Z,4.07
2018-07-17T09:58:22.770Z,1.97
2018-07-17T10:00:56.763Z,2.07
2018-07-17T10:03:25.923Z,2.50
2018-07-17T10:05:55.949Z,2.43
2018-07-17T10:08:25.731Z,1.70
2018-07-17T10:10:54.425Z,1.80
2018-07-17T10:13:23.107Z,2.00
2018-07-17T10:15:52.360Z,2.07
2018-07-17T10:18:22.251Z,2.43
2018-07-17T10:20:51.337Z,3.73
2018-07-17T10:23:20.509Z,3.00
2018-07-17T10:25:49.819Z,2.30
2018-07-17T10:28:19.063Z,2.17
2018-07-17T10:30:48.300Z,2.00
2018-07-17T10:33:16.813Z,3.40
2018-07-17T10:35:46.092Z,2.83
2018-07-17T10:38:14.829Z,2.10
2018-07-17T10:40:44.528Z,1.97
2018-07-17T10:43:13.166Z,3.73
2018-07-17T10:45:42.064Z,2.87
2018-07-17T10:48:10.811Z,2.53
2018-07-17T10:50:39.701Z,4.20
2018-07-17T10:53:09.171Z,2.40
2018-07-17T10:55:37.955Z,2.77
2018-07-17T10:58:06.616Z,2.83
2018-07-17T11:00:36.737Z,3.03
2018-07-17T11:03:05.748Z,4.73
2018-07-17T11:05:35.037Z,2.50
2018-07-17T11:08:03.523Z,2.67
2018-07-17T11:10:32.052Z,2.27
2018-07-17T11:13:00.524Z,2.37
2018-07-17T11:15:29.099Z,2.33
2018-07-17T11:17:57.714Z,3.20
2018-07-17T11:20:26.218Z,2.23
2018-07-17T11:22:54.672Z,2.20
2018-07-17T11:25:23.245Z,3.10
2018-07-17T11:27:52.214Z,2.30
2018-07-17T11:30:20.694Z,2.20
2018-07-17T11:32:49.151Z,2.97
2018-07-17T11:35:17.702Z,2.27
2018-07-17T11:37:46.275Z,5.33
2018-07-17T11:40:15.257Z,2.30
2018-07-17T11:42:43.839Z,2.40
2018-07-17T11:45:12.300Z,2.33
2018-07-17T11:47:41.252Z,2.47
2018-07-17T11:50:10.859Z,2.30
2018-07-17T11:52:39.839Z,2.40
2018-07-17T11:55:08.489Z,2.60
2018-07-17T11:57:37.586Z,2.07
2018-07-17T12:00:06.669Z,4.07
2018-07-17T12:02:35.607Z,2.10
2018-07-17T12:05:04.474Z,3.43
2018-07-17T12:07:33.247Z,2.13
2018-07-17T12:10:02.394Z,3.13
2018-07-17T12:12:31.079Z,2.23
2018-07-17T12:14:59.606Z,2.20
2018-07-17T12:17:28.455Z,2.30
2018-07-17T12:19:57.723Z,2.20
2018-07-17T12:22:26.379Z,2.40
2018-07-17T12:24:55.143Z,2.23
2018-07-17T12:27:23.901Z,2.70
2018-07-17T12:29:52.666Z,2.30
2018-07-17T12:32:21.616Z,3.43
2018-07-17T12:34:50.549Z,2.10
2018-07-17T12:37:20.153Z,2.50
2018-07-17T12:39:49.200Z,3.30
2018-07-17T12:42:18.174Z,4.13
2018-07-17T12:44:46.675Z,2.50
2018-07-17T12:47:15.400Z,2.20
2018-07-17T12:49:43.889Z,2.40
2018-07-17T12:52:12.525Z,4.37
2018-07-17T12:54:41.008Z,2.00
2018-07-17T12:57:09.467Z,2.23
2018-07-17T12:59:37.919Z,2.50
2018-07-17T13:02:07.017Z,2.73
2018-07-17T13:04:35.511Z,2.33
2018-07-17T13:07:04.387Z,2.50
2018-07-17T13:09:32.914Z,2.40
2018-07-17T13:12:01.851Z,2.40
2018-07-17T13:14:30.458Z,2.17
2018-07-17T13:16:59.182Z,2.30
2018-07-17T13:19:27.721Z,3.20
2018-07-17T13:21:56.373Z,2.40
2018-07-17T13:24:25.267Z,2.13
2018-07-17T13:26:53.830Z,2.47
2018-07-17T13:29:21.965Z,2.83
2018-07-17T13:31:50.488Z,3.17
2018-07-17T13:34:19.764Z,2.40
2018-07-17T13:36:49.403Z,2.43
2018-07-17T13:39:18.115Z,2.63
2018-07-17T13:41:46.946Z,3.67
2018-07-17T13:44:15.697Z,2.57
2018-07-17T13:46:44.769Z,4.27
2018-07-17T13:49:13.391Z,2.60
2018-07-17T13:51:42.479Z,2.70
2018-07-17T13:54:11.659Z,3.00
2018-07-17T13:56:40.766Z,5.63
2018-07-17T13:59:10.133Z,2.60
2018-07-17T14:01:39.913Z,2.47
2018-07-17T14:04:09.236Z,2.63
2018-07-17T14:06:38.500Z,2.30
2018-07-17T14:09:08.426Z,2.40
2018-07-17T14:11:37.102Z,3.37
2018-07-17T14:14:05.928Z,1.70
2018-07-17T14:16:34.784Z,2.00
2018-07-17T14:19:03.792Z,9.47
2018-07-17T14:21:34.193Z,2.97
2018-07-17T14:24:03.352Z,2.33
2018-07-17T14:26:31.710Z,3.93
2018-07-17T14:29:00.222Z,1.90
2018-07-17T14:31:28.739Z,3.77
2018-07-17T14:33:57.275Z,1.47
2018-07-17T14:36:26.015Z,2.77
2018-07-17T14:38:54.781Z,1.60
2018-07-17T14:41:23.270Z,4.20
2018-07-17T14:43:51.716Z,4.40
2018-07-17T14:46:20.147Z,2.50
2018-07-17T14:48:48.776Z,3.03
2018-07-17T14:51:17.315Z,3.33
2018-07-17T14:53:45.860Z,2.83
2018-07-17T14:56:14.447Z,3.07
2018-07-17T14:58:42.618Z,3.30
2018-07-17T15:01:11.247Z,2.50
2018-07-17T15:03:39.760Z,3.37
2018-07-17T15:06:09.026Z,5.40
2018-07-17T15:08:37.524Z,2.67
2018-07-17T15:11:05.981Z,2.80
2018-07-17T15:13:34.615Z,5.93
2018-07-17T15:16:03.287Z,2.60
2018-07-17T15:18:31.845Z,7.33
2018-07-17T15:21:00.333Z,2.87
2018-07-17T15:23:28.848Z,4.70
2018-07-17T15:25:57.651Z,2.63
2018-07-17T15:28:26.301Z,3.47
2018-07-17T15:30:54.782Z,3.10
2018-07-17T15:33:23.386Z,3.03
2018-07-17T15:35:51.954Z,4.47
2018-07-17T15:38:20.648Z,3.07
2018-07-17T15:40:49.090Z,4.87
2018-07-17T15:43:18.261Z,3.93
2018-07-17T15:45:49.561Z,5.20
2018-07-17T15:48:18.123Z,2.90
2018-07-17T15:50:46.614Z,2.90
2018-07-17T15:53:15.407Z,6.67
2018-07-17T15:55:44.035Z,3.77
2018-07-17T15:58:12.687Z,2.33
2018-07-17T16:00:41.184Z,2.60
2018-07-17T16:03:09.828Z,2.45
2018-07-17T16:05:38.412Z,4.25
2018-07-17T16:08:07.324Z,2.15
2018-07-17T16:10:35.975Z,3.20
2018-07-17T16:13:04.697Z,4.33
2018-07-17T16:15:33.263Z,2.10
2018-07-17T16:18:02.102Z,3.42
2018-07-17T16:20:30.781Z,2.15
2018-07-17T16:23:00.637Z,2.62
2018-07-17T16:25:29.117Z,6.15
2018-07-17T16:27:57.634Z,2.80
2018-07-17T16:30:26.923Z,2.05
2018-07-17T16:32:55.642Z,1.85
2018-07-17T16:35:25.068Z,2.90
2018-07-17T16:37:53.631Z,5.40
2018-07-17T16:40:22.157Z,2.50
2018-07-17T16:42:51.270Z,3.37
2018-07-17T16:45:19.801Z,2.40
2018-07-17T16:47:48.549Z,5.58
2018-07-17T16:50:17.293Z,4.40
2018-07-17T16:52:45.948Z,4.78
2018-07-17T16:55:14.432Z,2.52
2018-07-17T16:57:43.042Z,3.55
2018-07-17T17:00:11.599Z,3.58
2018-07-17T17:02:40.051Z,2.70
2018-07-17T17:05:08.519Z,3.07
2018-07-17T17:07:37.222Z,3.17
2018-07-17T17:10:05.869Z,3.87
2018-07-17T17:12:34.562Z,2.90
2018-07-17T17:15:03.212Z,5.20
2018-07-17T17:17:31.652Z,3.73
2018-07-17T17:20:00.156Z,5.57
2018-07-17T17:22:28.716Z,4.20
2018-07-17T17:24:57.342Z,3.53
2018-07-17T17:27:25.882Z,4.70
2018-07-17T17:29:54.372Z,4.37
2018-07-17T17:32:23.045Z,7.00
2018-07-17T17:34:51.503Z,3.70
2018-07-17T17:37:20.014Z,3.43
2018-07-17T17:39:48.508Z,4.57
2018-07-17T17:42:17.041Z,4.40
2018-07-17T17:44:45.607Z,4.27
2018-07-17T17:47:14.117Z,3.53
2018-07-17T17:49:42.540Z,4.60
2018-07-17T17:52:11.253Z,3.50
2018-07-17T17:54:39.884Z,5.43
2018-07-17T17:57:08.505Z,5.10
2018-07-17T17:59:37.096Z,3.60
2018-07-17T18:02:05.316Z,4.30
2018-07-17T18:04:33.857Z,5.10
2018-07-17T18:07:02.395Z,4.40
2018-07-17T18:09:31.807Z,4.37
2018-07-17T18:12:00.548Z,3.93
2018-07-17T18:14:29.500Z,6.33
2018-07-17T18:16:58.250Z,3.87
2018-07-17T18:19:27.960Z,5.63
2018-07-17T18:21:56.772Z,3.20
2018-07-17T18:24:25.402Z,2.93
2018-07-17T18:26:54.321Z,3.67
2018-07-17T18:29:23.063Z,3.90
2018-07-17T18:31:51.599Z,6.47
2018-07-17T18:34:20.576Z,3.33
2018-07-17T18:36:49.015Z,4.13
2018-07-17T18:39:17.573Z,5.27
2018-07-17T18:41:46.796Z,3.17
2018-07-17T18:44:14.943Z,4.13
2018-07-17T18:46:43.528Z,6.43
2018-07-17T18:49:12.110Z,5.30
2018-07-17T18:51:40.793Z,3.47
2018-07-17T18:54:09.379Z,4.17
2018-07-17T18:56:37.960Z,4.47
2018-07-17T18:59:06.856Z,4.00
2018-07-17T19:01:35.086Z,5.60
2018-07-17T19:04:04.126Z,4.60
2018-07-17T19:06:32.850Z,3.97
2018-07-17T19:09:01.616Z,4.00
2018-07-17T19:11:30.465Z,3.50
2018-07-17T19:13:59.216Z,5.63
2018-07-17T19:16:27.953Z,4.83
2018-07-17T19:18:56.648Z,4.67
2018-07-17T19:21:25.325Z,3.50
2018-07-17T19:23:54.117Z,6.87
2018-07-17T19:26:22.752Z,5.00
2018-07-17T19:28:51.543Z,5.17
2018-07-17T19:31:20.021Z,8.70
2018-07-17T19:33:48.740Z,8.10
2018-07-17T19:36:17.532Z,6.60
2018-07-17T19:38:46.174Z,4.03
2018-07-17T19:41:14.896Z,6.47
2018-07-17T19:43:43.572Z,6.83
2018-07-17T19:46:12.222Z,5.30
2018-07-17T19:48:40.854Z,3.53
2018-07-17T19:51:09.468Z,3.70
2018-07-17T19:53:37.947Z,5.60
2018-07-17T19:56:06.564Z,6.47
2018-07-17T19:58:35.077Z,4.13
2018-07-17T20:01:03.730Z,4.97
2018-07-17T20:03:32.355Z,4.00
2018-07-17T20:06:01.300Z,4.10
2018-07-17T20:08:29.937Z,4.43
2018-07-17T20:10:58.472Z,4.70
2018-07-17T20:13:27.229Z,4.93
2018-07-17T20:15:56.090Z,3.90
2018-07-17T20:18:24.496Z,4.43
2018-07-17T20:20:53.150Z,5.13
2018-07-17T20:23:21.832Z,4.90
2018-07-17T20:25:50.480Z,5.33
2018-07-17T20:28:19.524Z,4.33
2018-07-17T20:30:47.676Z,4.50
2018-07-17T20:33:16.503Z,6.17
2018-07-17T20:35:45.212Z,4.80
2018-07-17T20:38:13.809Z,4.50
2018-07-17T20:40:42.538Z,3.90
2018-07-17T20:43:11.442Z,4.37
2018-07-17T20:45:40.398Z,4.60
2018-07-17T20:48:08.991Z,4.70
2018-07-17T20:50:37.523Z,6.60
2018-07-17T20:53:06.383Z,4.90
2018-07-17T20:55:34.934Z,4.70
2018-07-17T20:58:03.640Z,5.43
2018-07-17T21:00:32.378Z,7.60
2018-07-17T21:03:01.120Z,6.50
2018-07-17T21:05:29.785Z,7.10
2018-07-17T21:07:58.239Z,4.30
2018-07-17T21:10:26.703Z,4.37
2018-07-17T21:12:55.280Z,5.13
2018-07-17T21:15:23.739Z,9.93
2018-07-17T21:17:52.169Z,4.50
2018-07-17T21:20:20.730Z,4.80
2018-07-17T21:22:49.373Z,4.90
2018-07-17T21:25:17.983Z,6.03
2018-07-17T21:27:46.498Z,5.83
2018-07-17T21:30:15.854Z,5.27
2018-07-17T21:32:44.378Z,8.07
2018-07-17T21:35:13.283Z,7.17
2018-07-17T21:37:41.843Z,5.83
2018-07-17T21:40:10.440Z,6.07
2018-07-17T21:42:38.880Z,6.13
2018-07-17T21:45:07.483Z,4.57
2018-07-17T21:47:36.876Z,7.00
2018-07-17T21:50:05.875Z,6.63
2018-07-17T21:52:34.343Z,4.70
2018-07-17T21:55:02.970Z,5.27
2018-07-17T21:57:31.442Z,4.53
2018-07-17T22:00:00.076Z,5.57
2018-07-17T22:02:28.640Z,4.93
2018-07-17T22:04:57.561Z,4.47
2018-07-17T22:07:26.164Z,4.53
2018-07-17T22:09:54.625Z,5.00
2018-07-17T22:12:23.342Z,5.17
2018-07-17T22:14:51.895Z,5.00
2018-07-17T22:17:20.500Z,4.63
2018-07-17T22:19:49.082Z,4.47
2018-07-17T22:22:17.610Z,4.73
2018-07-17T22:24:46.195Z,4.40
2018-07-17T22:27:14.716Z,4.37
2018-07-17T22:29:43.228Z,4.70
2018-07-17T22:32:11.769Z,6.33
2018-07-17T22:34:40.220Z,5.03
2018-07-17T22:37:08.733Z,4.87
2018-07-17T22:39:37.142Z,4.50
2018-07-17T22:42:05.802Z,4.40
2018-07-17T22:44:34.233Z,4.70
2018-07-17T22:47:02.807Z,5.73
2018-07-17T22:49:32.205Z,4.50
2018-07-17T22:52:00.779Z,4.13
2018-07-17T22:54:29.261Z,4.60
2018-07-17T22:56:57.639Z,4.83
2018-07-17T22:59:26.102Z,5.33
2018-07-17T23:01:54.549Z,5.30
2018-07-17T23:04:23.223Z,7.10
2018-07-17T23:06:51.647Z,4.90
2018-07-17T23:09:20.124Z,5.27
2018-07-17T23:11:48.657Z,5.40
2018-07-17T23:14:17.196Z,5.13
2018-07-17T23:16:45.695Z,5.43
2018-07-17T23:19:14.183Z,5.17
2018-07-17T23:21:42.660Z,5.10
2018-07-17T23:24:11.150Z,4.73
2018-07-17T23:26:39.586Z,5.17
2018-07-17T23:29:08.322Z,4.97
2018-07-17T23:31:36.790Z,7.13
2018-07-17T23:34:05.353Z,5.10
2018-07-17T23:36:33.832Z,5.27
2018-07-17T23:39:02.312Z,5.20
2018-07-17T23:41:30.981Z,5.00
2018-07-17T23:43:59.528Z,4.93
2018-07-17T23:46:28.018Z,4.60
2018-07-17T23:48:56.408Z,5.17
2018-07-17T23:51:28.120Z,5.43
2018-07-17T23:53:56.578Z,5.03
2018-07-17T23:56:25.171Z,5.80
2018-07-17T23:58:53.590Z,4.60
